Time;durP1;ratioP1;P1;durP2;ratioP2;P2;SDS_P1;SDS_P2;PMS_P1;PMS_P2;Temp;Humidity;BMP_temperature;BMP_pressure;BME280_temperature;BME280_humidity;BME280_pressure;Samples;Min_cycle;Max_cycle;Signal;HPM_P1;HPM_P2
2021/05/08 00:00:31;;;;;;;5.17;4.23;;;10.80;50.80;;;;;;5008329;28;20213;-44
2021/05/08 00:02:57;;;;;;;5.80;4.23;;;10.60;51.10;;;;;;5001847;28;20515;-43
2021/05/08 00:05:22;;;;;;;5.37;4.23;;;10.20;52.00;;;;;;5008720;28;20202;-43
2021/05/08 00:07:48;;;;;;;4.47;3.80;;;10.10;52.50;;;;;;5012287;28;20194;-43
2021/05/08 00:10:15;;;;;;;4.27;3.87;;;10.00;52.60;;;;;;5010396;28;20198;-43
2021/05/08 00:12:41;;;;;;;4.83;4.00;;;10.00;52.60;;;;;;5002415;28;20213;-43
2021/05/08 00:15:10;;;;;;;4.87;3.93;;;10.00;52.50;;;;;;5008598;28;20451;-46
2021/05/08 00:17:35;;;;;;;6.87;4.10;;;10.00;52.40;;;;;;5012350;28;20441;-43
2021/05/08 00:20:01;;;;;;;4.70;4.20;;;10.10;52.30;;;;;;5010375;28;20508;-43
2021/05/08 00:22:27;;;;;;;4.73;4.13;;;10.10;52.10;;;;;;5009077;28;20198;-44
2021/05/08 00:24:52;;;;;;;3.80;3.50;;;10.10;52.00;;;;;;5011453;28;20193;-42
2021/05/08 00:27:18;;;;;;;4.53;4.13;;;10.10;52.00;;;;;;5001448;28;20663;-44
2021/05/08 00:29:43;;;;;;;4.47;4.07;;;10.10;52.00;;;;;;5009499;28;20189;-44
2021/05/08 00:32:09;;;;;;;3.83;3.43;;;10.00;52.00;;;;;;5007176;28;20233;-44
2021/05/08 00:34:35;;;;;;;4.50;4.07;;;10.00;51.90;;;;;;5011558;28;20751;-45
2021/05/08 00:37:00;;;;;;;4.53;4.00;;;9.90;52.90;;;;;;5008756;28;20300;-43
2021/05/08 00:39:26;;;;;;;4.40;4.00;;;9.90;52.80;;;;;;5009470;28;20321;-44
2021/05/08 00:41:52;;;;;;;3.93;3.63;;;9.70;53.40;;;;;;5012365;28;20233;-43
2021/05/08 00:44:18;;;;;;;4.33;3.93;;;9.60;53.50;;;;;;5010013;28;20193;-44
2021/05/08 00:46:44;;;;;;;5.43;3.87;;;9.50;53.90;;;;;;5010677;28;20232;-44
2021/05/08 00:49:10;;;;;;;5.07;4.63;;;9.50;54.20;;;;;;5010495;28;20494;-44
2021/05/08 00:51:36;;;;;;;4.67;3.90;;;9.30;54.30;;;;;;5006079;28;20979;-43
2021/05/08 00:54:02;;;;;;;4.80;4.10;;;9.50;54.20;;;;;;5008735;28;20206;-43
2021/05/08 00:56:28;;;;;;;3.93;3.63;;;9.60;53.70;;;;;;5011440;28;20567;-43
2021/05/08 00:58:54;;;;;;;4.33;3.93;;;9.70;53.50;;;;;;5004843;28;20225;-43
2021/05/08 01:01:19;;;;;;;3.77;3.47;;;9.70;53.20;;;;;;5008822;28;20562;-43
2021/05/08 01:03:46;;;;;;;4.33;3.93;;;9.00;54.20;;;;;;5009293;28;20515;-44
2021/05/08 01:06:12;;;;;;;4.47;4.07;;;8.90;55.20;;;;;;5007009;28;20198;-43
2021/05/08 01:08:37;;;;;;;4.50;4.10;;;9.00;55.20;;;;;;5009630;28;20445;-44
2021/05/08 01:11:04;;;;;;;4.80;4.30;;;9.10;54.90;;;;;;5009742;28;20834;-44
2021/05/08 01:13:32;;;;;;;4.17;3.77;;;9.40;54.90;;;;;;5010373;28;20197;-43
2021/05/08 01:15:58;;;;;;;5.00;4.10;;;9.30;54.60;;;;;;5006619;28;20455;-43
2021/05/08 01:18:24;;;;;;;4.97;4.30;;;9.50;54.30;;;;;;5005213;28;20859;-43
2021/05/08 01:20:50;;;;;;;4.60;4.20;;;9.60;53.90;;;;;;5007311;28;20914;-43
2021/05/08 01:23:16;;;;;;;4.40;4.00;;;9.50;53.90;;;;;;5009114;28;20555;-43
2021/05/08 01:25:42;;;;;;;4.40;4.00;;;9.40;53.90;;;;;;5007460;28;20441;-42
2021/05/08 01:28:07;;;;;;;4.90;4.40;;;9.40;54.00;;;;;;5006070;28;20444;-43
2021/05/08 01:30:35;;;;;;;4.70;4.30;;;9.30;54.10;;;;;;5010566;28;20616;-44
2021/05/08 01:33:01;;;;;;;4.33;3.93;;;9.00;54.80;;;;;;5009724;28;20672;-42
2021/05/08 01:35:28;;;;;;;4.90;4.43;;;8.90;55.40;;;;;;5006174;28;20436;-43
2021/05/08 01:37:54;;;;;;;4.10;3.67;;;8.80;55.60;;;;;;5003999;28;20564;-45
2021/05/08 01:40:34;;;;;;;3.93;3.63;;;8.60;55.80;;;;;;5010267;28;20576;-44
2021/05/08 01:43:00;;;;;;;4.00;3.60;;;8.60;56.00;;;;;;5008106;28;20197;-45
2021/05/08 01:45:26;;;;;;;4.83;4.40;;;8.80;55.80;;;;;;5008178;28;20459;-43
2021/05/08 01:47:52;;;;;;;4.37;4.00;;;8.80;55.60;;;;;;5008173;28;20686;-44
2021/05/08 01:50:23;;;;;;;5.37;4.47;;;8.80;55.40;;;;;;5009462;28;20437;-42
2021/05/08 01:52:49;;;;;;;4.40;3.67;;;8.70;55.20;;;;;;5007624;28;20437;-43
2021/05/08 01:55:20;;;;;;;4.10;3.70;;;8.60;55.40;;;;;;5008172;28;20937;-46
2021/05/08 01:57:49;;;;;;;4.70;4.27;;;8.40;55.90;;;;;;5003776;28;20213;-43
2021/05/08 02:00:19;;;;;;;5.97;4.90;;;8.40;55.70;;;;;;5010853;28;20998;-43
2021/05/08 02:02:47;;;;;;;5.37;4.70;;;8.40;55.90;;;;;;5008102;28;20478;-43
2021/05/08 02:05:13;;;;;;;7.20;3.73;;;8.40;55.80;;;;;;5008196;28;20448;-47
2021/05/08 02:07:38;;;;;;;4.20;3.80;;;8.20;56.10;;;;;;5010283;28;20444;-44
2021/05/08 02:10:05;;;;;;;5.90;4.47;;;8.20;56.20;;;;;;5009163;28;20441;-43
2021/05/08 02:12:32;;;;;;;4.53;4.13;;;7.90;56.30;;;;;;5008546;28;20194;-43
2021/05/08 02:14:58;;;;;;;4.37;4.00;;;7.90;56.70;;;;;;5010228;28;20445;-43
2021/05/08 02:17:24;;;;;;;5.07;4.33;;;7.80;56.80;;;;;;5010206;28;20443;-44
2021/05/08 02:19:50;;;;;;;5.27;4.67;;;7.80;56.90;;;;;;5006840;28;20693;-44
2021/05/08 02:22:17;;;;;;;5.50;4.47;;;7.70;56.90;;;;;;5000814;28;20304;-42
2021/05/08 02:24:43;;;;;;;3.90;3.60;;;7.70;57.20;;;;;;5007527;28;20453;-48
2021/05/08 02:27:09;;;;;;;5.50;4.60;;;7.60;57.10;;;;;;5008334;28;20506;-43
2021/05/08 02:29:34;;;;;;;4.73;4.17;;;7.40;57.40;;;;;;5002870;28;20194;-44
2021/05/08 02:32:00;;;;;;;4.83;4.03;;;7.50;58.20;;;;;;5008137;28;20197;-43
2021/05/08 02:34:25;;;;;;;5.20;4.70;;;7.70;57.60;;;;;;5014718;28;20189;-43
2021/05/08 02:36:51;;;;;;;5.73;4.90;;;7.80;57.20;;;;;;5010739;28;20229;-43
2021/05/08 02:39:17;;;;;;;5.90;4.00;;;7.70;57.10;;;;;;5012929;28;20225;-42
2021/05/08 02:41:43;;;;;;;5.07;4.30;;;7.70;57.30;;;;;;5009443;28;20197;-43
2021/05/08 02:44:08;;;;;;;5.60;4.47;;;7.70;57.10;;;;;;5009619;28;20982;-44
2021/05/08 02:46:34;;;;;;;5.17;4.70;;;7.70;57.20;;;;;;5011301;28;20225;-43
2021/05/08 02:48:59;;;;;;;4.50;4.10;;;7.70;57.20;;;;;;5011911;28;21096;-43
2021/05/08 02:51:26;;;;;;;5.33;4.83;;;7.70;57.20;;;;;;5011733;28;20186;-42
2021/05/08 02:53:52;;;;;;;4.50;4.10;;;7.80;56.90;;;;;;5012153;28;20252;-43
2021/05/08 02:56:17;;;;;;;5.90;3.87;;;8.00;56.60;;;;;;5012378;28;20867;-43
2021/05/08 02:58:44;;;;;;;3.47;3.23;;;8.20;56.20;;;;;;5008101;28;20214;-45
2021/05/08 03:01:09;;;;;;;5.50;4.50;;;8.20;55.90;;;;;;5011399;28;20233;-42
2021/05/08 03:03:35;;;;;;;5.80;4.17;;;8.20;55.80;;;;;;5010410;28;20452;-43
2021/05/08 03:06:01;;;;;;;4.97;4.53;;;8.20;56.00;;;;;;5011871;28;20194;-42
2021/05/08 03:08:26;;;;;;;4.73;4.30;;;8.20;55.80;;;;;;5011762;28;20198;-43
2021/05/08 03:10:52;;;;;;;4.67;4.27;;;8.40;55.80;;;;;;5012822;28;20190;-44
2021/05/08 03:13:17;;;;;;;5.60;5.10;;;8.60;55.90;;;;;;5010150;28;20206;-43
2021/05/08 03:15:43;;;;;;;4.40;3.83;;;8.70;54.90;;;;;;5009685;28;20182;-42
2021/05/08 03:18:09;;;;;;;4.70;4.30;;;8.80;54.50;;;;;;5008644;28;20205;-43
2021/05/08 03:20:34;;;;;;;4.90;4.40;;;8.90;54.60;;;;;;5013071;28;20583;-43
2021/05/08 03:23:00;;;;;;;6.83;4.40;;;8.90;54.40;;;;;;5006767;28;20327;-43
2021/05/08 03:25:26;;;;;;;4.60;4.20;;;8.90;54.20;;;;;;5007668;28;20202;-44
2021/05/08 03:27:51;;;;;;;4.83;4.37;;;9.00;54.20;;;;;;5010531;28;20190;-43
2021/05/08 03:30:17;;;;;;;5.10;4.60;;;8.90;53.80;;;;;;5008590;28;20468;-42
2021/05/08 03:32:43;;;;;;;5.13;4.50;;;8.70;54.20;;;;;;5012046;28;20547;-43
2021/05/08 03:35:09;;;;;;;5.53;4.30;;;8.70;54.60;;;;;;5009770;28;20193;-44
2021/05/08 03:37:35;;;;;;;4.47;4.07;;;8.80;54.50;;;;;;5008064;28;20234;-43
2021/05/08 03:40:00;;;;;;;4.40;4.10;;;8.90;54.20;;;;;;5010948;28;20491;-43
2021/05/08 03:42:26;;;;;;;4.27;3.87;;;9.00;54.00;;;;;;4996257;28;20200;-44
2021/05/08 03:44:51;;;;;;;5.23;4.40;;;9.10;53.80;;;;;;5008787;28;20677;-47
2021/05/08 03:47:17;;;;;;;6.47;5.30;;;9.00;53.60;;;;;;5012252;28;20240;-43
2021/05/08 03:49:42;;;;;;;5.57;4.50;;;8.60;53.90;;;;;;5006132;28;20206;-43
2021/05/08 03:52:08;;;;;;;4.97;4.47;;;8.50;54.80;;;;;;5006642;28;20201;-44
2021/05/08 03:54:36;;;;;;;5.50;5.07;;;8.60;54.80;;;;;;5007722;28;20226;-44
2021/05/08 03:57:01;;;;;;;5.73;4.70;;;8.80;54.50;;;;;;5006447;28;20200;-45
2021/05/08 03:59:27;;;;;;;4.07;3.77;;;8.90;54.20;;;;;;5006541;28;22216;-43
2021/05/08 04:01:53;;;;;;;5.27;4.50;;;9.00;54.10;;;;;;5007293;28;20798;-44
2021/05/08 04:04:18;;;;;;;5.50;5.00;;;9.00;53.80;;;;;;5013246;28;20220;-43
2021/05/08 04:06:44;;;;;;;6.57;4.97;;;9.00;53.60;;;;;;5007838;28;20190;-43
2021/05/08 04:09:10;;;;;;;6.00;4.27;;;9.00;53.60;;;;;;5010893;28;20661;-43
2021/05/08 04:11:37;;;;;;;5.17;4.43;;;8.90;53.70;;;;;;5009661;28;20225;-44
2021/05/08 04:14:04;;;;;;;5.17;4.67;;;8.70;54.10;;;;;;5009064;28;20436;-43
2021/05/08 04:16:31;;;;;;;5.27;4.47;;;8.50;54.30;;;;;;5008159;28;20451;-46
2021/05/08 04:18:57;;;;;;;5.77;5.27;;;8.30;55.20;;;;;;5010705;28;20492;-44
2021/05/08 04:21:23;;;;;;;5.63;5.00;;;8.50;55.30;;;;;;5009986;28;20437;-43
2021/05/08 04:23:49;;;;;;;5.03;4.50;;;8.60;54.80;;;;;;5009681;28;20472;-43
2021/05/08 04:26:14;;;;;;;4.97;4.43;;;8.70;54.60;;;;;;5008713;28;20201;-42
2021/05/08 04:28:40;;;;;;;5.13;4.60;;;8.60;54.60;;;;;;5010923;28;20198;-43
2021/05/08 04:31:05;;;;;;;5.30;4.80;;;8.60;54.80;;;;;;5006792;28;21231;-45
2021/05/08 04:33:31;;;;;;;5.10;4.60;;;8.10;55.30;;;;;;5002347;28;20190;-43
2021/05/08 04:35:56;;;;;;;5.43;4.93;;;8.20;56.10;;;;;;5002307;28;20263;-44
2021/05/08 04:38:22;;;;;;;5.90;5.30;;;8.10;56.40;;;;;;5003700;28;20680;-42
2021/05/08 04:40:55;;;;;;;8.60;5.40;;;7.90;56.50;;;;;;5008368;28;20221;-42
2021/05/08 04:43:21;;;;;;;6.53;5.87;;;8.00;56.30;;;;;;5010002;28;20453;-43
2021/05/08 04:45:47;;;;;;;6.20;5.70;;;8.20;56.40;;;;;;5010751;28;20540;-42
2021/05/08 04:48:29;;;;;;;6.10;5.47;;;8.40;55.90;;;;;;5007167;28;20527;-44
2021/05/08 04:50:55;;;;;;;5.00;4.50;;;8.60;55.50;;;;;;5009943;28;20928;-44
2021/05/08 04:53:21;;;;;;;8.47;6.73;;;8.70;55.20;;;;;;5009192;28;20453;-43
2021/05/08 04:55:47;;;;;;;12.77;8.50;;;8.90;54.90;;;;;;5008682;28;20441;-43
2021/05/08 04:58:13;;;;;;;10.10;7.80;;;9.00;54.50;;;;;;5006408;28;20467;-43
2021/05/08 05:00:39;;;;;;;8.37;7.43;;;9.00;54.30;;;;;;5008335;28;20455;-43
2021/05/08 05:03:05;;;;;;;7.33;5.90;;;8.80;54.80;;;;;;5009306;28;20932;-44
2021/05/08 05:05:30;;;;;;;6.27;5.40;;;8.50;55.50;;;;;;5008701;28;20193;-42
2021/05/08 05:07:56;;;;;;;7.77;5.47;;;8.40;55.90;;;;;;5007737;28;20194;-44
2021/05/08 05:10:22;;;;;;;6.40;5.33;;;8.50;56.10;;;;;;5001902;28;20228;-43
2021/05/08 05:12:48;;;;;;;6.97;5.60;;;8.70;55.70;;;;;;5010666;28;20624;-43
2021/05/08 05:15:19;;;;;;;5.83;5.30;;;8.70;55.60;;;;;;5004913;28;20201;-44
2021/05/08 05:17:46;;;;;;;10.57;4.43;;;8.70;55.80;;;;;;5001816;28;20483;-44
2021/05/08 05:20:12;;;;;;;5.87;5.30;;;8.80;57.30;;;;;;5007258;28;20495;-42
2021/05/08 05:22:39;;;;;;;5.80;5.17;;;9.20;58.20;;;;;;5004291;28;20475;-42
2021/05/08 05:25:06;;;;;;;5.80;5.20;;;9.60;57.10;;;;;;5005412;28;20548;-42
2021/05/08 05:27:32;;;;;;;6.10;4.60;;;9.90;56.20;;;;;;5006077;28;20452;-42
2021/05/08 05:29:58;;;;;;;6.10;5.47;;;10.20;54.30;;;;;;5005793;28;20520;-45
2021/05/08 05:32:24;;;;;;;5.10;4.67;;;10.40;52.50;;;;;;5006484;28;20210;-42
2021/05/08 05:34:50;;;;;;;5.50;5.00;;;10.20;52.80;;;;;;5005859;28;20449;-43
2021/05/08 05:37:15;;;;;;;6.77;4.70;;;10.60;53.50;;;;;;5000089;28;21287;-43
2021/05/08 05:39:41;;;;;;;7.27;5.60;;;10.90;52.60;;;;;;5001710;28;20764;-42
2021/05/08 05:42:06;;;;;;;7.43;4.73;;;11.20;52.10;;;;;;5001326;28;20209;-42
2021/05/08 05:44:32;;;;;;;4.80;4.40;;;11.20;51.10;;;;;;5005292;28;20276;-43
2021/05/08 05:46:58;;;;;;;4.77;4.30;;;11.40;51.30;;;;;;5007798;28;20201;-43
2021/05/08 05:49:23;;;;;;;7.67;4.40;;;11.70;50.90;;;;;;5009066;28;20225;-42
2021/05/08 05:51:49;;;;;;;4.57;4.17;;;11.90;50.50;;;;;;5004871;28;20194;-42
2021/05/08 05:54:15;;;;;;;4.83;4.33;;;12.10;49.90;;;;;;5013117;28;20217;-42
2021/05/08 05:56:40;;;;;;;5.17;4.77;;;12.20;49.70;;;;;;5009443;28;20544;-43
2021/05/08 05:59:06;;;;;;;6.67;5.37;;;12.30;49.50;;;;;;5009375;28;20810;-44
2021/05/08 06:01:32;;;;;;;5.90;5.30;;;12.50;49.00;;;;;;5005734;28;20448;-42
2021/05/08 06:03:57;;;;;;;5.40;4.90;;;12.30;48.60;;;;;;5004309;28;20244;-43
2021/05/08 06:06:23;;;;;;;5.00;4.50;;;12.20;49.10;;;;;;5007743;28;20199;-41
2021/05/08 06:08:48;;;;;;;5.17;4.67;;;12.30;49.40;;;;;;5009161;28;20202;-42
2021/05/08 06:11:14;;;;;;;4.90;4.43;;;12.40;49.10;;;;;;5008267;28;20276;-43
2021/05/08 06:13:40;;;;;;;5.80;4.83;;;12.10;49.00;;;;;;5012662;28;20189;-43
2021/05/08 06:16:08;;;;;;;4.00;3.50;;;12.20;49.40;;;;;;5012583;28;20190;-43
2021/05/08 06:18:34;;;;;;;4.83;4.10;;;12.10;49.20;;;;;;5008010;28;20221;-42
2021/05/08 06:21:01;;;;;;;5.33;4.83;;;12.30;49.00;;;;;;5012132;28;21103;-44
2021/05/08 06:23:27;;;;;;;4.73;4.23;;;12.40;48.70;;;;;;5009891;28;20437;-42
2021/05/08 06:25:53;;;;;;;5.33;4.83;;;12.50;48.40;;;;;;5011906;28;20498;-42
2021/05/08 06:28:19;;;;;;;5.23;4.47;;;12.70;48.30;;;;;;5010958;28;20520;-45
2021/05/08 06:30:45;;;;;;;4.30;3.90;;;13.00;47.70;;;;;;5010491;28;20560;-42
2021/05/08 06:33:11;;;;;;;4.70;4.23;;;13.10;47.00;;;;;;5010972;28;20687;-42
2021/05/08 06:35:37;;;;;;;9.70;4.77;;;13.30;46.80;;;;;;5012408;28;20198;-43
2021/05/08 06:38:02;;;;;;;5.50;5.00;;;13.30;46.60;;;;;;5011086;28;21010;-43
2021/05/08 06:40:28;;;;;;;5.33;4.83;;;13.20;46.40;;;;;;5013851;28;20534;-42
2021/05/08 06:42:54;;;;;;;5.33;4.83;;;13.50;46.80;;;;;;5010108;28;20202;-42
2021/05/08 06:45:20;;;;;;;4.43;4.03;;;13.70;46.40;;;;;;5010834;28;20194;-41
2021/05/08 06:47:51;;;;;;;4.10;3.80;;;14.00;45.40;;;;;;5011462;28;20941;-43
2021/05/08 06:50:16;;;;;;;4.10;3.70;;;14.20;45.40;;;;;;5009267;28;20205;-42
2021/05/08 06:52:42;;;;;;;4.00;3.67;;;14.40;44.90;;;;;;5013027;28;20432;-46
2021/05/08 06:55:08;;;;;;;5.80;3.60;;;14.70;44.30;;;;;;5007261;28;20217;-44
2021/05/08 06:57:34;;;;;;;4.20;3.90;;;14.80;43.60;;;;;;4992667;28;20244;-43
2021/05/08 07:00:03;;;;;;;4.07;3.63;;;14.80;42.90;;;;;;4996511;28;20996;-42
2021/05/08 07:02:29;;;;;;;3.83;3.20;;;14.90;43.50;;;;;;5013274;28;20198;-44
2021/05/08 07:04:54;;;;;;;5.20;4.07;;;15.10;42.90;;;;;;4997902;28;20429;-43
2021/05/08 07:07:21;;;;;;;4.87;3.83;;;15.10;43.20;;;;;;5006456;28;20198;-45
2021/05/08 07:09:46;;;;;;;4.67;3.67;;;15.30;43.00;;;;;;5006571;28;20203;-42
2021/05/08 07:12:12;;;;;;;3.53;3.20;;;15.70;43.20;;;;;;5003516;28;20448;-45
2021/05/08 07:14:37;;;;;;;4.30;3.90;;;15.90;41.20;;;;;;4996660;28;21022;-43
2021/05/08 07:17:03;;;;;;;4.30;3.63;;;15.90;41.40;;;;;;5002000;28;20201;-43
2021/05/08 07:19:28;;;;;;;4.30;3.20;;;16.20;41.30;;;;;;4996097;28;20222;-43
2021/05/08 07:21:54;;;;;;;3.47;3.17;;;16.20;40.60;;;;;;5002324;28;20190;-42
2021/05/08 07:24:20;;;;;;;4.60;3.80;;;16.30;40.10;;;;;;4995311;28;20203;-43
2021/05/08 07:26:45;;;;;;;5.30;2.87;;;16.70;40.40;;;;;;5008828;28;20202;-44
2021/05/08 07:29:11;;;;;;;4.27;3.87;;;16.90;40.00;;;;;;4996996;28;20260;-47
2021/05/08 07:31:37;;;;;;;4.60;3.10;;;17.00;39.70;;;;;;4998479;28;20288;-43
2021/05/08 07:34:03;;;;;;;5.23;3.50;;;17.00;39.40;;;;;;4999024;28;20203;-47
2021/05/08 07:36:28;;;;;;;3.57;3.27;;;17.40;40.20;;;;;;5010391;28;20200;-44
2021/05/08 07:38:56;;;;;;;3.33;2.90;;;17.60;39.50;;;;;;5009503;28;20571;-46
2021/05/08 07:41:22;;;;;;;3.00;2.80;;;17.90;37.60;;;;;;5013706;28;20189;-43
2021/05/08 07:43:47;;;;;;;3.30;2.90;;;18.10;37.40;;;;;;5009172;28;20544;-45
2021/05/08 07:46:13;;;;;;;3.00;2.70;;;18.30;38.30;;;;;;5012342;28;20203;-43
2021/05/08 07:48:38;;;;;;;2.90;2.70;;;18.50;36.90;;;;;;5003227;28;20202;-46
2021/05/08 07:51:04;;;;;;;3.37;3.00;;;18.50;35.90;;;;;;5010030;28;20236;-43
2021/05/08 07:53:30;;;;;;;7.00;2.90;;;18.70;36.20;;;;;;5001282;28;20198;-44
2021/05/08 07:55:55;;;;;;;10.23;3.47;;;18.80;35.50;;;;;;5007449;28;20221;-45
2021/05/08 07:58:22;;;;;;;3.80;3.50;;;18.90;35.20;;;;;;5002155;28;20195;-43
2021/05/08 08:00:48;;;;;;;3.10;2.90;;;18.90;35.50;;;;;;5009932;28;20197;-44
2021/05/08 08:03:13;;;;;;;2.57;2.37;;;19.10;35.50;;;;;;5012473;28;20888;-44
2021/05/08 08:05:39;;;;;;;4.43;3.17;;;19.00;34.30;;;;;;5012520;28;20198;-42
2021/05/08 08:08:04;;;;;;;3.50;2.57;;;18.90;34.80;;;;;;4995802;28;20244;-45
2021/05/08 08:10:30;;;;;;;3.53;2.70;;;19.00;35.50;;;;;;5012944;28;20221;-45
2021/05/08 08:12:56;;;;;;;2.73;2.30;;;19.10;34.90;;;;;;5012178;28;20671;-47
2021/05/08 08:15:21;;;;;;;2.90;2.60;;;19.00;35.00;;;;;;5012235;28;20221;-43
2021/05/08 08:17:47;;;;;;;4.03;2.43;;;18.80;34.60;;;;;;5000753;28;20617;-46
2021/05/08 08:20:14;;;;;;;3.27;2.97;;;18.90;35.60;;;;;;5011560;28;20629;-46
2021/05/08 08:22:41;;;;;;;2.97;2.70;;;19.10;36.10;;;;;;5012162;28;20231;-43
2021/05/08 08:25:08;;;;;;;3.07;2.60;;;19.40;36.30;;;;;;5012654;28;20425;-46
2021/05/08 08:27:34;;;;;;;4.30;2.27;;;19.50;34.40;;;;;;5006791;28;20433;-42
2021/05/08 08:30:00;;;;;;;2.70;2.50;;;19.60;34.70;;;;;;5012262;28;20441;-45
2021/05/08 08:32:25;;;;;;;3.70;2.50;;;19.70;33.40;;;;;;5002931;28;20197;-44
2021/05/08 08:34:51;;;;;;;2.30;2.10;;;19.90;33.80;;;;;;5005780;28;20197;-43
2021/05/08 08:37:17;;;;;;;1.80;1.70;;;20.00;32.40;;;;;;5008650;28;20317;-46
2021/05/08 08:39:42;;;;;;;2.30;2.10;;;20.10;32.30;;;;;;5011947;28;20349;-44
2021/05/08 08:42:08;;;;;;;3.00;2.60;;;20.20;31.70;;;;;;5010201;28;20285;-44
2021/05/08 08:44:38;;;;;;;2.20;2.00;;;20.20;32.10;;;;;;5011053;28;20277;-44
2021/05/08 08:47:05;;;;;;;2.83;2.40;;;20.30;32.60;;;;;;5007577;28;20203;-43
2021/05/08 08:49:31;;;;;;;2.30;2.10;;;20.30;32.40;;;;;;4999402;28;20437;-43
2021/05/08 08:51:57;;;;;;;2.80;1.93;;;20.50;32.80;;;;;;4992611;28;20468;-43
2021/05/08 08:54:23;;;;;;;2.57;2.37;;;20.60;31.80;;;;;;5008020;28;20489;-46
2021/05/08 08:56:50;;;;;;;2.27;2.07;;;20.70;31.70;;;;;;5007280;28;20261;-45
2021/05/08 08:59:28;;;;;;;3.10;1.73;;;20.80;30.70;;;;;;4994044;28;20622;-46
2021/05/08 09:01:55;;;;;;;2.90;1.87;;;20.70;29.00;;;;;;5006936;28;20445;-43
2021/05/08 09:04:21;;;;;;;2.03;1.83;;;20.50;29.30;;;;;;5009495;28;20516;-47
2021/05/08 09:06:48;;;;;;;2.07;1.87;;;20.40;29.70;;;;;;4997129;28;20838;-47
2021/05/08 09:09:15;;;;;;;1.73;1.63;;;20.50;29.70;;;;;;5012033;28;20874;-47
2021/05/08 09:11:45;;;;;;;1.87;1.67;;;20.50;30.40;;;;;;5010012;28;20441;-44
2021/05/08 09:14:15;;;;;;;1.70;1.27;;;20.60;29.60;;;;;;5010208;28;20433;-45
2021/05/08 09:16:59;;;;;;;2.37;1.70;;;20.70;29.10;;;;;;5006487;28;20503;-43
2021/05/08 09:19:25;;;;;;;2.07;1.90;;;20.60;28.90;;;;;;5007043;28;20488;-48
2021/05/08 09:21:50;;;;;;;3.23;1.63;;;20.70;29.10;;;;;;5003146;28;20982;-46
2021/05/08 09:24:16;;;;;;;1.70;1.60;;;20.80;29.30;;;;;;5007448;28;20220;-46
2021/05/08 09:26:44;;;;;;;1.93;1.73;;;20.80;29.30;;;;;;5010116;28;20655;-48
2021/05/08 09:29:23;;;;;;;1.73;1.63;;;20.80;29.80;;;;;;5006677;28;20199;-46
2021/05/08 09:31:57;;;;;;;1.70;1.40;;;20.70;29.80;;;;;;4991952;28;20449;-48
2021/05/08 09:34:23;;;;;;;2.20;1.90;;;20.70;29.70;;;;;;5004559;28;20928;-45
2021/05/08 09:36:55;;;;;;;2.37;1.90;;;20.90;29.50;;;;;;4999561;28;21676;-49
2021/05/08 09:39:34;;;;;;;3.13;1.90;;;20.90;29.00;;;;;;5007183;28;20476;-44
2021/05/08 09:42:02;;;;;;;2.20;1.57;;;20.50;29.10;;;;;;4995119;28;20433;-48
2021/05/08 09:44:28;;;;;;;2.83;2.10;;;20.30;29.70;;;;;;4999518;28;20516;-47
2021/05/08 09:46:56;;;;;;;4.57;1.40;;;20.50;30.00;;;;;;5008224;28;20533;-45
2021/05/08 09:49:22;;;;;;;1.70;1.20;;;20.60;29.60;;;;;;5003323;28;20190;-46
2021/05/08 09:51:58;;;;;;;3.73;1.37;;;20.70;29.40;;;;;;5010605;28;20524;-48
2021/05/08 09:54:23;;;;;;;1.40;1.30;;;20.70;29.20;;;;;;5009999;28;20196;-48
2021/05/08 09:56:50;;;;;;;3.73;1.70;;;20.90;29.90;;;;;;5005177;28;20437;-48
2021/05/08 09:59:22;;;;;;;2.30;1.73;;;20.80;28.80;;;;;;4999349;28;20233;-43
2021/05/08 10:02:10;;;;;;;1.93;1.80;;;20.70;29.40;;;;;;5005936;28;20507;-43
2021/05/08 10:04:42;;;;;;;1.93;1.83;;;20.90;30.00;;;;;;5007784;28;20452;-44
2021/05/08 10:07:22;;;;;;;1.70;1.60;;;21.20;29.30;;;;;;5007649;28;20502;-43
2021/05/08 10:09:49;;;;;;;1.90;1.80;;;21.20;29.10;;;;;;5007839;28;20519;-44
2021/05/08 10:12:33;;;;;;;2.60;2.00;;;20.90;28.70;;;;;;5008948;28;20510;-43
2021/05/08 10:14:59;;;;;;;1.97;1.73;;;20.90;29.50;;;;;;5010151;28;20451;-44
2021/05/08 10:17:26;;;;;;;3.07;1.97;;;20.80;30.00;;;;;;4997301;28;20433;-44
2021/05/08 10:20:05;;;;;;;2.93;2.23;;;20.70;30.60;;;;;;5010237;28;20226;-43
2021/05/08 10:22:34;;;;;;;3.90;1.97;;;21.10;31.00;;;;;;5001894;28;20437;-45
2021/05/08 10:25:04;;;;;;;2.30;1.80;;;21.30;29.70;;;;;;5006338;28;20440;-44
2021/05/08 10:27:29;;;;;;;3.53;2.20;;;21.60;29.00;;;;;;5005748;28;20433;-44
2021/05/08 10:29:56;;;;;;;1.80;1.70;;;21.90;29.50;;;;;;5010658;28;20834;-44
2021/05/08 10:32:22;;;;;;;3.10;2.00;;;21.90;31.00;;;;;;5003731;28;20205;-45
2021/05/08 10:34:53;;;;;;;2.00;1.90;;;21.80;28.90;;;;;;5007128;28;20515;-46
2021/05/08 10:37:19;;;;;;;2.10;1.80;;;21.50;29.70;;;;;;5006739;28;20460;-43
2021/05/08 10:39:51;;;;;;;4.07;2.10;;;21.80;29.50;;;;;;5004533;28;20491;-43
2021/05/08 10:42:31;;;;;;;2.33;1.87;;;22.40;29.90;;;;;;4995914;28;20507;-43
2021/05/08 10:44:58;;;;;;;2.90;2.17;;;22.60;29.90;;;;;;5005166;28;20460;-44
2021/05/08 10:47:23;;;;;;;2.50;1.67;;;23.00;28.90;;;;;;5001850;28;20499;-43
2021/05/08 10:50:20;;;;;;;3.87;1.50;;;23.30;29.50;;;;;;5005020;28;20992;-44
2021/05/08 10:53:00;;;;;;;1.40;1.30;;;23.60;28.50;;;;;;4997997;28;20210;-43
2021/05/08 10:55:27;;;;;;;3.60;2.20;;;23.40;27.30;;;;;;5009089;28;20947;-44
2021/05/08 10:58:15;;;;;;;2.10;1.90;;;23.20;28.90;;;;;;4996899;28;20830;-44
2021/05/08 11:01:01;;;;;;;1.80;1.70;;;23.70;29.40;;;;;;5001523;28;20545;-45
2021/05/08 11:03:31;;;;;;;2.00;1.73;;;24.00;27.70;;;;;;5006247;28;21025;-44
2021/05/08 11:06:13;;;;;;;1.70;1.60;;;24.30;27.60;;;;;;5010701;28;20489;-44
2021/05/08 11:08:39;;;;;;;2.17;2.07;;;24.30;27.20;;;;;;5012344;28;20456;-47
2021/05/08 11:11:11;;;;;;;2.60;1.60;;;24.20;26.70;;;;;;5010740;28;20437;-43
2021/05/08 11:13:43;;;;;;;1.93;1.60;;;24.20;27.20;;;;;;5010640;28;20940;-45
2021/05/08 11:16:18;;;;;;;2.30;1.80;;;24.20;27.40;;;;;;5012938;28;20433;-43
2021/05/08 11:18:48;;;;;;;2.10;1.93;;;24.20;27.50;;;;;;5013707;28;20475;-44
2021/05/08 11:21:14;;;;;;;1.60;1.50;;;24.40;27.40;;;;;;5011754;28;20453;-44
2021/05/08 11:23:46;;;;;;;2.10;1.90;;;24.30;26.90;;;;;;5013150;28;20528;-43
2021/05/08 11:26:20;;;;;;;1.53;1.40;;;24.20;26.70;;;;;;5012564;28;20193;-44
2021/05/08 11:28:52;;;;;;;3.23;1.80;;;24.30;26.90;;;;;;5006765;28;20445;-44
2021/05/08 11:31:22;;;;;;;1.90;1.80;;;24.30;26.60;;;;;;5011042;28;20887;-45
2021/05/08 11:33:48;;;;;;;5.87;1.80;;;24.20;26.70;;;;;;5009320;28;20456;-47
2021/05/08 11:36:13;;;;;;;1.77;1.67;;;24.40;27.00;;;;;;5007062;28;20429;-46
2021/05/08 11:38:39;;;;;;;2.40;1.70;;;24.30;26.40;;;;;;5009703;28;20314;-44
2021/05/08 11:41:24;;;;;;;1.67;1.57;;;24.60;27.00;;;;;;5013843;28;20197;-43
2021/05/08 11:43:57;;;;;;;3.50;1.90;;;24.60;26.70;;;;;;5012740;28;20305;-44
2021/05/08 11:46:30;;;;;;;1.70;1.60;;;24.60;25.90;;;;;;5007219;28;20552;-44
2021/05/08 11:48:57;;;;;;;2.50;1.60;;;24.60;26.30;;;;;;5010709;28;20932;-48
2021/05/08 11:51:23;;;;;;;2.27;2.10;;;24.60;26.10;;;;;;5013587;28;20449;-43
2021/05/08 11:54:11;;;;;;;2.70;1.63;;;24.70;26.00;;;;;;5012367;28;21027;-44
2021/05/08 11:56:37;;;;;;;3.50;1.60;;;24.80;26.30;;;;;;5011043;28;20202;-48
2021/05/08 11:59:05;;;;;;;1.70;1.60;;;24.60;26.00;;;;;;5014748;28;20480;-43
2021/05/08 12:01:32;;;;;;;1.70;1.47;;;24.60;25.60;;;;;;5021020;28;20456;-46
2021/05/08 12:03:59;;;;;;;6.47;2.27;;;24.30;26.60;;;;;;5005186;28;20486;-44
2021/05/08 12:06:26;;;;;;;2.07;1.53;;;24.50;25.90;;;;;;5002763;28;20464;-46
2021/05/08 12:08:53;;;;;;;2.43;2.20;;;24.70;25.60;;;;;;5011309;28;20433;-43
2021/05/08 12:11:19;;;;;;;2.67;1.70;;;24.70;25.50;;;;;;5009212;28;20444;-44
2021/05/08 12:13:45;;;;;;;2.47;1.50;;;24.70;25.20;;;;;;5010291;28;20524;-43
2021/05/08 12:16:12;;;;;;;1.40;1.30;;;24.50;25.40;;;;;;5010839;28;20437;-45
2021/05/08 12:18:39;;;;;;;1.90;1.70;;;24.60;25.40;;;;;;5008572;28;20436;-44
2021/05/08 12:21:06;;;;;;;2.50;1.50;;;24.10;25.10;;;;;;5001410;28;20438;-44
2021/05/08 12:23:35;;;;;;;1.80;1.50;;;23.70;25.30;;;;;;5008341;28;20433;-44
2021/05/08 12:26:06;;;;;;;1.80;1.70;;;23.00;26.20;;;;;;5010045;28;21232;-44
2021/05/08 12:28:58;;;;;;;1.63;1.53;;;23.30;26.80;;;;;;5012634;28;20440;-45
2021/05/08 12:31:27;;;;;;;2.40;1.80;;;23.60;27.20;;;;;;4999428;28;20437;-44
2021/05/08 12:33:55;;;;;;;3.97;1.90;;;23.40;26.40;;;;;;5009368;28;20442;-44
2021/05/08 12:36:23;;;;;;;1.60;1.50;;;22.80;27.30;;;;;;5006337;28;20426;-44
2021/05/08 12:38:51;;;;;;;6.10;1.50;;;22.90;27.00;;;;;;5003382;28;21004;-44
2021/05/08 12:41:32;;;;;;;1.60;1.50;;;22.80;26.80;;;;;;5012183;28;20587;-44
2021/05/08 12:44:11;;;;;;;2.30;1.60;;;23.00;27.30;;;;;;4992338;28;20441;-44
2021/05/08 12:46:56;;;;;;;1.63;1.53;;;23.30;26.40;;;;;;4992568;28;20481;-44
2021/05/08 12:49:22;;;;;;;2.20;1.60;;;23.50;26.20;;;;;;4994914;28;20839;-45
2021/05/08 12:51:48;;;;;;;2.70;1.53;;;23.60;26.40;;;;;;4993981;28;20460;-44